sensor_id;sensor_type;location;lat;lon;timestamp;P1;durP1;ratioP1;P2;durP2;ratioP2
2928;SDS011;1474;51.460;7.150;2023-11-18T00:02:23;4.03;;;3.35;;
2928;SDS011;1474;51.460;7.150;2023-11-18T00:04:52;5.00;;;3.50;;
2928;SDS011;1474;51.460;7.150;2023-11-18T00:07:18;5.75;;;3.83;;
2928;SDS011;1474;51.460;7.150;2023-11-18T00:09:44;4.03;;;3.63;;
2928;SDS011;1474;51.460;7.150;2023-11-18T00:12:11;4.65;;;3.25;;
2928;SDS011;1474;51.460;7.150;2023-11-18T00:14:39;5.13;;;3.15;;
2928;SDS011;1474;51.460;7.150;2023-11-18T00:17:08;4.25;;;3.17;;
2928;SDS011;1474;51.460;7.150;2023-11-18T00:19:37;4.32;;;3.78;;
2928;SDS011;1474;51.460;7.150;2023-11-18T00:22:03;5.57;;;3.85;;
2928;SDS011;1474;51.460;7.150;2023-11-18T00:24:28;5.85;;;3.85;;
2928;SDS011;1474;51.460;7.150;2023-11-18T00:26:58;5.35;;;4.22;;
2928;SDS011;1474;51.460;7.150;2023-11-18T00:29:23;4.70;;;3.53;;
2928;SDS011;1474;51.460;7.150;2023-11-18T00:31:50;5.75;;;3.95;;
2928;SDS011;1474;51.460;7.150;2023-11-18T00:34:16;3.88;;;3.25;;
2928;SDS011;1474;51.460;7.150;2023-11-18T00:36:42;4.10;;;3.13;;
2928;SDS011;1474;51.460;7.150;2023-11-18T00:39:16;4.20;;;3.22;;
2928;SDS011;1474;51.460;7.150;2023-11-18T00:41:53;4.05;;;3.10;;
2928;SDS011;1474;51.460;7.150;2023-11-18T00:44:21;3.92;;;3.20;;
2928;SDS011;1474;51.460;7.150;2023-11-18T00:46:47;4.95;;;3.17;;
2928;SDS011;1474;51.460;7.150;2023-11-18T00:49:15;3.78;;;3.17;;
2928;SDS011;1474;51.460;7.150;2023-11-18T00:51:42;4.82;;;3.33;;
2928;SDS011;1474;51.460;7.150;2023-11-18T00:54:08;4.15;;;3.25;;
2928;SDS011;1474;51.460;7.150;2023-11-18T00:56:40;4.22;;;3.28;;
2928;SDS011;1474;51.460;7.150;2023-11-18T00:59:06;4.70;;;3.33;;
2928;SDS011;1474;51.460;7.150;2023-11-18T01:01:32;4.03;;;2.95;;
2928;SDS011;1474;51.460;7.150;2023-11-18T01:03:58;4.43;;;3.13;;
2928;SDS011;1474;51.460;7.150;2023-11-18T01:06:31;4.05;;;3.55;;
2928;SDS011;1474;51.460;7.150;2023-11-18T01:09:00;3.45;;;3.15;;
2928;SDS011;1474;51.460;7.150;2023-11-18T01:11:32;3.42;;;2.97;;
2928;SDS011;1474;51.460;7.150;2023-11-18T01:14:02;4.78;;;4.03;;
2928;SDS011;1474;51.460;7.150;2023-11-18T01:16:28;3.90;;;2.92;;
2928;SDS011;1474;51.460;7.150;2023-11-18T01:18:54;4.28;;;3.13;;
2928;SDS011;1474;51.460;7.150;2023-11-18T01:21:26;4.45;;;3.60;;
2928;SDS011;1474;51.460;7.150;2023-11-18T01:23:52;4.00;;;3.17;;
2928;SDS011;1474;51.460;7.150;2023-11-18T01:26:18;5.13;;;3.70;;
2928;SDS011;1474;51.460;7.150;2023-11-18T01:28:44;4.00;;;3.63;;
2928;SDS011;1474;51.460;7.150;2023-11-18T01:31:11;5.18;;;3.70;;
2928;SDS011;1474;51.460;7.150;2023-11-18T01:33:38;4.68;;;3.13;;
2928;SDS011;1474;51.460;7.150;2023-11-18T01:36:06;4.47;;;3.30;;
2928;SDS011;1474;51.460;7.150;2023-11-18T01:38:34;4.57;;;3.28;;
2928;SDS011;1474;51.460;7.150;2023-11-18T01:41:04;4.15;;;3.00;;
2928;SDS011;1474;51.460;7.150;2023-11-18T01:43:37;4.70;;;3.50;;
2928;SDS011;1474;51.460;7.150;2023-11-18T01:46:05;3.38;;;2.65;;
2928;SDS011;1474;51.460;7.150;2023-11-18T01:48:40;3.65;;;2.63;;
2928;SDS011;1474;51.460;7.150;2023-11-18T01:51:10;3.55;;;2.72;;
2928;SDS011;1474;51.460;7.150;2023-11-18T01:53:39;4.97;;;3.60;;
2928;SDS011;1474;51.460;7.150;2023-11-18T01:56:09;4.57;;;3.17;;
2928;SDS011;1474;51.460;7.150;2023-11-18T01:58:37;3.75;;;2.70;;
2928;SDS011;1474;51.460;7.150;2023-11-18T02:01:09;4.00;;;3.30;;
2928;SDS011;1474;51.460;7.150;2023-11-18T02:03:37;4.30;;;3.03;;
2928;SDS011;1474;51.460;7.150;2023-11-18T02:06:05;4.53;;;3.28;;
2928;SDS011;1474;51.460;7.150;2023-11-18T02:08:35;3.72;;;2.85;;
2928;SDS011;1474;51.460;7.150;2023-11-18T02:11:17;3.83;;;2.90;;
2928;SDS011;1474;51.460;7.150;2023-11-18T02:14:00;4.55;;;2.95;;
2928;SDS011;1474;51.460;7.150;2023-11-18T02:16:28;2.67;;;2.45;;
2928;SDS011;1474;51.460;7.150;2023-11-18T02:18:54;3.20;;;2.70;;
2928;SDS011;1474;51.460;7.150;2023-11-18T02:21:24;3.45;;;3.00;;
2928;SDS011;1474;51.460;7.150;2023-11-18T02:23:51;4.63;;;2.75;;
2928;SDS011;1474;51.460;7.150;2023-11-18T02:26:23;3.63;;;2.63;;
2928;SDS011;1474;51.460;7.150;2023-11-18T02:28:50;3.65;;;2.63;;
2928;SDS011;1474;51.460;7.150;2023-11-18T02:31:23;3.28;;;2.85;;
2928;SDS011;1474;51.460;7.150;2023-11-18T02:36:44;3.15;;;2.58;;
2928;SDS011;1474;51.460;7.150;2023-11-18T02:39:32;3.45;;;2.80;;
2928;SDS011;1474;51.460;7.150;2023-11-18T02:42:07;3.75;;;3.00;;
2928;SDS011;1474;51.460;7.150;2023-11-18T02:44:40;3.20;;;2.58;;
2928;SDS011;1474;51.460;7.150;2023-11-18T02:47:07;3.70;;;2.47;;
2928;SDS011;1474;51.460;7.150;2023-11-18T02:49:39;4.72;;;3.55;;
2928;SDS011;1474;51.460;7.150;2023-11-18T02:52:05;3.38;;;2.75;;
2928;SDS011;1474;51.460;7.150;2023-11-18T02:54:34;3.33;;;2.67;;
2928;SDS011;1474;51.460;7.150;2023-11-18T02:56:59;3.70;;;2.83;;
2928;SDS011;1474;51.460;7.150;2023-11-18T02:59:26;3.22;;;2.80;;
2928;SDS011;1474;51.460;7.150;2023-11-18T03:01:55;3.38;;;2.58;;
2928;SDS011;1474;51.460;7.150;2023-11-18T03:04:21;3.78;;;2.80;;
2928;SDS011;1474;51.460;7.150;2023-11-18T03:06:49;3.25;;;2.40;;
2928;SDS011;1474;51.460;7.150;2023-11-18T03:09:15;4.65;;;3.15;;
2928;SDS011;1474;51.460;7.150;2023-11-18T03:11:41;3.88;;;3.20;;
2928;SDS011;1474;51.460;7.150;2023-11-18T03:14:11;3.88;;;2.70;;
2928;SDS011;1474;51.460;7.150;2023-11-18T03:16:40;5.63;;;3.03;;
2928;SDS011;1474;51.460;7.150;2023-11-18T03:19:06;3.88;;;2.63;;
2928;SDS011;1474;51.460;7.150;2023-11-18T03:21:33;3.28;;;2.65;;
2928;SDS011;1474;51.460;7.150;2023-11-18T03:24:06;3.00;;;2.38;;
2928;SDS011;1474;51.460;7.150;2023-11-18T03:26:32;3.45;;;2.45;;
2928;SDS011;1474;51.460;7.150;2023-11-18T03:28:58;3.58;;;2.83;;
2928;SDS011;1474;51.460;7.150;2023-11-18T03:31:24;3.53;;;2.72;;
2928;SDS011;1474;51.460;7.150;2023-11-18T03:33:49;4.43;;;2.92;;
2928;SDS011;1474;51.460;7.150;2023-11-18T03:36:15;4.75;;;2.45;;
2928;SDS011;1474;51.460;7.150;2023-11-18T03:38:42;4.05;;;2.80;;
2928;SDS011;1474;51.460;7.150;2023-11-18T03:41:12;3.60;;;2.70;;
2928;SDS011;1474;51.460;7.150;2023-11-18T03:43:38;2.92;;;2.63;;
2928;SDS011;1474;51.460;7.150;2023-11-18T03:46:06;3.67;;;2.72;;
2928;SDS011;1474;51.460;7.150;2023-11-18T03:48:32;3.30;;;2.63;;
2928;SDS011;1474;51.460;7.150;2023-11-18T03:50:58;3.55;;;2.78;;
2928;SDS011;1474;51.460;7.150;2023-11-18T03:53:28;3.45;;;3.10;;
2928;SDS011;1474;51.460;7.150;2023-11-18T03:55:57;2.63;;;2.33;;
2928;SDS011;1474;51.460;7.150;2023-11-18T03:58:25;3.47;;;2.53;;
2928;SDS011;1474;51.460;7.150;2023-11-18T04:00:51;3.58;;;2.65;;
2928;SDS011;1474;51.460;7.150;2023-11-18T04:03:29;4.10;;;2.88;;
2928;SDS011;1474;51.460;7.150;2023-11-18T04:05:56;2.80;;;2.25;;
2928;SDS011;1474;51.460;7.150;2023-11-18T04:08:22;4.05;;;2.90;;
2928;SDS011;1474;51.460;7.150;2023-11-18T04:10:52;2.72;;;2.38;;
2928;SDS011;1474;51.460;7.150;2023-11-18T04:13:17;3.30;;;2.60;;
2928;SDS011;1474;51.460;7.150;2023-11-18T04:15:43;3.75;;;2.38;;
2928;SDS011;1474;51.460;7.150;2023-11-18T04:18:10;3.28;;;2.08;;
2928;SDS011;1474;51.460;7.150;2023-11-18T04:20:36;3.17;;;2.42;;
2928;SDS011;1474;51.460;7.150;2023-11-18T04:23:02;3.45;;;2.45;;
2928;SDS011;1474;51.460;7.150;2023-11-18T04:25:27;3.05;;;1.92;;
2928;SDS011;1474;51.460;7.150;2023-11-18T04:27:56;2.53;;;2.25;;
2928;SDS011;1474;51.460;7.150;2023-11-18T04:30:24;2.88;;;2.40;;
2928;SDS011;1474;51.460;7.150;2023-11-18T04:32:51;2.58;;;2.28;;
2928;SDS011;1474;51.460;7.150;2023-11-18T04:35:17;2.70;;;2.30;;
2928;SDS011;1474;51.460;7.150;2023-11-18T04:37:43;3.80;;;2.40;;
2928;SDS011;1474;51.460;7.150;2023-11-18T04:40:18;4.10;;;2.78;;
2928;SDS011;1474;51.460;7.150;2023-11-18T04:42:48;3.63;;;2.40;;
2928;SDS011;1474;51.460;7.150;2023-11-18T04:45:17;3.13;;;2.55;;
2928;SDS011;1474;51.460;7.150;2023-11-18T04:47:45;2.60;;;1.83;;
2928;SDS011;1474;51.460;7.150;2023-11-18T04:50:11;2.55;;;2.10;;
2928;SDS011;1474;51.460;7.150;2023-11-18T04:52:40;3.60;;;2.55;;
2928;SDS011;1474;51.460;7.150;2023-11-18T04:55:06;3.15;;;2.40;;
2928;SDS011;1474;51.460;7.150;2023-11-18T04:57:38;4.88;;;2.85;;
2928;SDS011;1474;51.460;7.150;2023-11-18T05:00:04;3.08;;;2.00;;
2928;SDS011;1474;51.460;7.150;2023-11-18T05:02:38;3.15;;;2.50;;
2928;SDS011;1474;51.460;7.150;2023-11-18T05:05:08;3.78;;;2.55;;
2928;SDS011;1474;51.460;7.150;2023-11-18T05:07:34;3.53;;;2.50;;
2928;SDS011;1474;51.460;7.150;2023-11-18T05:10:01;2.70;;;2.22;;
2928;SDS011;1474;51.460;7.150;2023-11-18T05:12:33;3.33;;;2.15;;
2928;SDS011;1474;51.460;7.150;2023-11-18T05:15:03;4.35;;;2.47;;
2928;SDS011;1474;51.460;7.150;2023-11-18T05:17:38;3.00;;;2.70;;
2928;SDS011;1474;51.460;7.150;2023-11-18T05:20:04;3.00;;;2.33;;
2928;SDS011;1474;51.460;7.150;2023-11-18T05:22:41;2.40;;;2.20;;
2928;SDS011;1474;51.460;7.150;2023-11-18T05:25:10;4.47;;;2.50;;
2928;SDS011;1474;51.460;7.150;2023-11-18T05:27:40;3.93;;;2.87;;
2928;SDS011;1474;51.460;7.150;2023-11-18T05:30:09;3.53;;;2.65;;
2928;SDS011;1474;51.460;7.150;2023-11-18T05:32:39;3.25;;;2.42;;
2928;SDS011;1474;51.460;7.150;2023-11-18T05:35:05;2.58;;;2.05;;
2928;SDS011;1474;51.460;7.150;2023-11-18T05:37:34;3.00;;;2.35;;
2928;SDS011;1474;51.460;7.150;2023-11-18T05:40:03;2.53;;;2.28;;
2928;SDS011;1474;51.460;7.150;2023-11-18T05:42:34;3.65;;;2.40;;
2928;SDS011;1474;51.460;7.150;2023-11-18T05:45:06;2.58;;;2.08;;
2928;SDS011;1474;51.460;7.150;2023-11-18T05:47:34;3.00;;;2.38;;
2928;SDS011;1474;51.460;7.150;2023-11-18T05:50:01;3.10;;;2.47;;
2928;SDS011;1474;51.460;7.150;2023-11-18T05:52:30;4.18;;;2.53;;
2928;SDS011;1474;51.460;7.150;2023-11-18T05:54:57;3.15;;;2.25;;
2928;SDS011;1474;51.460;7.150;2023-11-18T05:57:23;2.15;;;1.95;;
2928;SDS011;1474;51.460;7.150;2023-11-18T05:59:57;2.78;;;2.13;;
2928;SDS011;1474;51.460;7.150;2023-11-18T06:02:34;2.47;;;1.92;;
2928;SDS011;1474;51.460;7.150;2023-11-18T06:05:01;2.17;;;1.95;;
2928;SDS011;1474;51.460;7.150;2023-11-18T06:07:30;2.13;;;1.92;;
2928;SDS011;1474;51.460;7.150;2023-11-18T06:09:56;2.58;;;1.95;;
2928;SDS011;1474;51.460;7.150;2023-11-18T06:12:22;2.38;;;1.90;;
2928;SDS011;1474;51.460;7.150;2023-11-18T06:14:51;2.38;;;2.17;;
2928;SDS011;1474;51.460;7.150;2023-11-18T06:17:17;2.72;;;2.00;;
2928;SDS011;1474;51.460;7.150;2023-11-18T06:19:46;3.38;;;2.25;;
2928;SDS011;1474;51.460;7.150;2023-11-18T06:22:12;2.13;;;1.92;;
2928;SDS011;1474;51.460;7.150;2023-11-18T06:24:45;2.65;;;1.95;;
2928;SDS011;1474;51.460;7.150;2023-11-18T06:27:11;2.05;;;1.67;;
2928;SDS011;1474;51.460;7.150;2023-11-18T06:29:37;2.20;;;1.83;;
2928;SDS011;1474;51.460;7.150;2023-11-18T06:32:03;3.95;;;2.30;;
2928;SDS011;1474;51.460;7.150;2023-11-18T06:34:30;3.35;;;2.53;;
2928;SDS011;1474;51.460;7.150;2023-11-18T06:36:57;2.13;;;1.90;;
2928;SDS011;1474;51.460;7.150;2023-11-18T06:39:26;2.90;;;1.98;;
2928;SDS011;1474;51.460;7.150;2023-11-18T06:41:57;2.88;;;2.08;;
2928;SDS011;1474;51.460;7.150;2023-11-18T06:44:28;2.67;;;2.38;;
2928;SDS011;1474;51.460;7.150;2023-11-18T06:46:54;2.40;;;2.08;;
2928;SDS011;1474;51.460;7.150;2023-11-18T06:49:20;2.00;;;1.65;;
2928;SDS011;1474;51.460;7.150;2023-11-18T06:51:45;2.40;;;1.73;;
2928;SDS011;1474;51.460;7.150;2023-11-18T06:54:12;2.70;;;2.10;;
2928;SDS011;1474;51.460;7.150;2023-11-18T06:56:39;2.85;;;2.10;;
2928;SDS011;1474;51.460;7.150;2023-11-18T06:59:10;2.53;;;2.20;;
2928;SDS011;1474;51.460;7.150;2023-11-18T07:01:44;2.90;;;2.50;;
2928;SDS011;1474;51.460;7.150;2023-11-18T07:04:10;2.58;;;1.95;;
2928;SDS011;1474;51.460;7.150;2023-11-18T07:06:36;2.45;;;1.98;;
2928;SDS011;1474;51.460;7.150;2023-11-18T07:09:03;3.00;;;1.95;;
2928;SDS011;1474;51.460;7.150;2023-11-18T07:11:43;2.72;;;2.17;;
2928;SDS011;1474;51.460;7.150;2023-11-18T07:14:09;3.15;;;2.05;;
2928;SDS011;1474;51.460;7.150;2023-11-18T07:16:37;2.20;;;1.80;;
2928;SDS011;1474;51.460;7.150;2023-11-18T07:19:04;2.17;;;1.77;;
2928;SDS011;1474;51.460;7.150;2023-11-18T07:21:31;2.50;;;2.30;;
2928;SDS011;1474;51.460;7.150;2023-11-18T07:23:58;2.95;;;2.03;;
2928;SDS011;1474;51.460;7.150;2023-11-18T07:26:24;2.40;;;1.90;;
2928;SDS011;1474;51.460;7.150;2023-11-18T07:28:56;2.38;;;2.08;;
2928;SDS011;1474;51.460;7.150;2023-11-18T07:31:22;2.88;;;2.13;;
2928;SDS011;1474;51.460;7.150;2023-11-18T07:33:47;2.47;;;1.98;;
2928;SDS011;1474;51.460;7.150;2023-11-18T07:36:16;2.80;;;2.17;;
2928;SDS011;1474;51.460;7.150;2023-11-18T07:38:44;1.98;;;1.77;;
2928;SDS011;1474;51.460;7.150;2023-11-18T07:41:15;2.20;;;1.88;;
2928;SDS011;1474;51.460;7.150;2023-11-18T07:43:51;2.05;;;1.60;;
2928;SDS011;1474;51.460;7.150;2023-11-18T07:46:20;2.33;;;1.92;;
2928;SDS011;1474;51.460;7.150;2023-11-18T07:48:56;2.10;;;1.73;;
2928;SDS011;1474;51.460;7.150;2023-11-18T07:51:36;2.35;;;1.88;;
2928;SDS011;1474;51.460;7.150;2023-11-18T07:54:13;2.38;;;1.95;;
2928;SDS011;1474;51.460;7.150;2023-11-18T07:56:40;2.65;;;1.73;;
2928;SDS011;1474;51.460;7.150;2023-11-18T07:59:08;2.20;;;1.70;;
2928;SDS011;1474;51.460;7.150;2023-11-18T08:01:57;1.85;;;1.60;;
2928;SDS011;1474;51.460;7.150;2023-11-18T08:04:23;2.75;;;1.95;;
2928;SDS011;1474;51.460;7.150;2023-11-18T08:06:53;2.25;;;1.90;;
2928;SDS011;1474;51.460;7.150;2023-11-18T08:09:22;2.50;;;1.80;;
2928;SDS011;1474;51.460;7.150;2023-11-18T08:11:50;3.05;;;2.42;;
2928;SDS011;1474;51.460;7.150;2023-11-18T08:14:18;1.83;;;1.55;;
2928;SDS011;1474;51.460;7.150;2023-11-18T08:16:47;2.85;;;1.95;;
2928;SDS011;1474;51.460;7.150;2023-11-18T08:19:12;2.55;;;1.90;;
2928;SDS011;1474;51.460;7.150;2023-11-18T08:22:02;1.77;;;1.40;;
2928;SDS011;1474;51.460;7.150;2023-11-18T08:24:29;1.85;;;1.40;;
2928;SDS011;1474;51.460;7.150;2023-11-18T08:26:55;3.17;;;1.60;;
2928;SDS011;1474;51.460;7.150;2023-11-18T08:29:21;2.42;;;2.03;;
2928;SDS011;1474;51.460;7.150;2023-11-18T08:31:46;2.17;;;1.77;;
2928;SDS011;1474;51.460;7.150;2023-11-18T08:34:12;2.10;;;1.70;;
2928;SDS011;1474;51.460;7.150;2023-11-18T08:36:39;2.58;;;1.65;;
2928;SDS011;1474;51.460;7.150;2023-11-18T08:39:04;2.00;;;1.48;;
2928;SDS011;1474;51.460;7.150;2023-11-18T08:41:30;2.47;;;1.60;;
2928;SDS011;1474;51.460;7.150;2023-11-18T08:43:56;2.60;;;1.73;;
2928;SDS011;1474;51.460;7.150;2023-11-18T08:46:22;1.73;;;1.63;;
2928;SDS011;1474;51.460;7.150;2023-11-18T08:48:48;2.17;;;1.55;;
2928;SDS011;1474;51.460;7.150;2023-11-18T08:51:13;2.72;;;1.25;;
2928;SDS011;1474;51.460;7.150;2023-11-18T08:53:41;1.77;;;1.50;;
2928;SDS011;1474;51.460;7.150;2023-11-18T08:56:10;2.00;;;1.70;;
2928;SDS011;1474;51.460;7.150;2023-11-18T08:58:44;1.75;;;1.27;;
2928;SDS011;1474;51.460;7.150;2023-11-18T09:01:14;2.22;;;1.55;;
2928;SDS011;1474;51.460;7.150;2023-11-18T09:03:40;1.95;;;1.67;;
2928;SDS011;1474;51.460;7.150;2023-11-18T09:06:26;2.17;;;1.45;;
2928;SDS011;1474;51.460;7.150;2023-11-18T09:08:53;2.17;;;1.55;;
2928;SDS011;1474;51.460;7.150;2023-11-18T09:11:20;2.13;;;1.70;;
2928;SDS011;1474;51.460;7.150;2023-11-18T09:13:57;1.58;;;1.27;;
2928;SDS011;1474;51.460;7.150;2023-11-18T09:16:25;1.60;;;1.50;;
2928;SDS011;1474;51.460;7.150;2023-11-18T09:18:54;1.98;;;1.35;;
2928;SDS011;1474;51.460;7.150;2023-11-18T09:21:23;1.75;;;1.60;;
2928;SDS011;1474;51.460;7.150;2023-11-18T09:23:50;2.10;;;1.60;;
2928;SDS011;1474;51.460;7.150;2023-11-18T09:26:16;1.60;;;1.30;;
2928;SDS011;1474;51.460;7.150;2023-11-18T09:28:43;1.80;;;1.30;;
2928;SDS011;1474;51.460;7.150;2023-11-18T09:31:10;1.40;;;1.20;;
2928;SDS011;1474;51.460;7.150;2023-11-18T09:33:43;1.70;;;1.08;;
2928;SDS011;1474;51.460;7.150;2023-11-18T09:36:17;2.10;;;1.85;;
2928;SDS011;1474;51.460;7.150;2023-11-18T09:38:47;1.83;;;1.45;;
2928;SDS011;1474;51.460;7.150;2023-11-18T09:41:14;1.95;;;1.27;;
2928;SDS011;1474;51.460;7.150;2023-11-18T09:43:42;2.00;;;1.58;;
2928;SDS011;1474;51.460;7.150;2023-11-18T09:46:13;1.88;;;1.40;;
2928;SDS011;1474;51.460;7.150;2023-11-18T09:48:52;1.90;;;1.48;;
2928;SDS011;1474;51.460;7.150;2023-11-18T09:51:39;3.08;;;1.50;;
2928;SDS011;1474;51.460;7.150;2023-11-18T09:57:16;2.70;;;1.65;;
2928;SDS011;1474;51.460;7.150;2023-11-18T10:00:03;2.03;;;1.27;;
2928;SDS011;1474;51.460;7.150;2023-11-18T10:02:49;1.83;;;1.30;;
2928;SDS011;1474;51.460;7.150;2023-11-18T10:05:16;1.58;;;1.48;;
2928;SDS011;1474;51.460;7.150;2023-11-18T10:07:46;1.73;;;1.33;;
2928;SDS011;1474;51.460;7.150;2023-11-18T10:10:13;2.63;;;1.23;;
2928;SDS011;1474;51.460;7.150;2023-11-18T10:12:46;1.92;;;1.52;;
2928;SDS011;1474;51.460;7.150;2023-11-18T10:15:17;2.03;;;1.35;;
2928;SDS011;1474;51.460;7.150;2023-11-18T10:17:48;1.67;;;1.45;;
2928;SDS011;1474;51.460;7.150;2023-11-18T10:23:16;2.85;;;1.48;;
2928;SDS011;1474;51.460;7.150;2023-11-18T10:25:48;3.03;;;1.45;;
2928;SDS011;1474;51.460;7.150;2023-11-18T10:30:59;1.63;;;1.40;;
2928;SDS011;1474;51.460;7.150;2023-11-18T10:33:31;2.10;;;1.25;;
2928;SDS011;1474;51.460;7.150;2023-11-18T10:36:02;2.05;;;1.30;;
2928;SDS011;1474;51.460;7.150;2023-11-18T10:38:38;1.92;;;1.35;;
2928;SDS011;1474;51.460;7.150;2023-11-18T10:41:08;1.35;;;1.02;;
2928;SDS011;1474;51.460;7.150;2023-11-18T10:43:34;1.40;;;1.00;;
2928;SDS011;1474;51.460;7.150;2023-11-18T10:46:07;1.77;;;1.35;;
2928;SDS011;1474;51.460;7.150;2023-11-18T10:48:45;1.27;;;1.17;;
2928;SDS011;1474;51.460;7.150;2023-11-18T10:51:17;1.38;;;1.27;;
2928;SDS011;1474;51.460;7.150;2023-11-18T10:56:28;1.67;;;1.30;;
2928;SDS011;1474;51.460;7.150;2023-11-18T10:58:58;1.67;;;1.23;;
2928;SDS011;1474;51.460;7.150;2023-11-18T11:01:50;2.05;;;1.38;;
2928;SDS011;1474;51.460;7.150;2023-11-18T11:13:03;2.30;;;1.20;;
2928;SDS011;1474;51.460;7.150;2023-11-18T11:15:51;3.65;;;1.83;;
2928;SDS011;1474;51.460;7.150;2023-11-18T11:18:40;2.42;;;1.10;;
2928;SDS011;1474;51.460;7.150;2023-11-18T11:21:41;2.70;;;1.20;;
2928;SDS011;1474;51.460;7.150;2023-11-18T11:27:46;2.33;;;1.48;;
2928;SDS011;1474;51.460;7.150;2023-11-18T11:30:46;2.10;;;1.40;;
2928;SDS011;1474;51.460;7.150;2023-11-18T11:33:43;1.60;;;1.30;;
2928;SDS011;1474;51.460;7.150;2023-11-18T11:36:49;2.23;;;1.80;;
2928;SDS011;1474;51.460;7.150;2023-11-18T11:39:36;2.30;;;1.40;;
2928;SDS011;1474;51.460;7.150;2023-11-18T11:42:03;3.67;;;1.85;;
2928;SDS011;1474;51.460;7.150;2023-11-18T11:44:34;3.63;;;1.50;;
2928;SDS011;1474;51.460;7.150;2023-11-18T11:47:07;3.42;;;1.55;;
2928;SDS011;1474;51.460;7.150;2023-11-18T11:49:36;3.88;;;1.05;;
2928;SDS011;1474;51.460;7.150;2023-11-18T11:52:26;2.33;;;1.33;;
2928;SDS011;1474;51.460;7.150;2023-11-18T11:57:55;1.73;;;1.20;;
2928;SDS011;1474;51.460;7.150;2023-11-18T12:00:23;2.92;;;1.48;;
2928;SDS011;1474;51.460;7.150;2023-11-18T12:02:51;1.27;;;1.00;;
2928;SDS011;1474;51.460;7.150;2023-11-18T12:05:24;1.50;;;1.20;;
2928;SDS011;1474;51.460;7.150;2023-11-18T12:07:54;1.30;;;0.80;;
2928;SDS011;1474;51.460;7.150;2023-11-18T12:10:21;1.73;;;1.37;;
2928;SDS011;1474;51.460;7.150;2023-11-18T12:13:06;1.63;;;1.23;;
2928;SDS011;1474;51.460;7.150;2023-11-18T12:18:23;3.17;;;1.33;;
2928;SDS011;1474;51.460;7.150;2023-11-18T12:20:50;1.48;;;1.13;;
2928;SDS011;1474;51.460;7.150;2023-11-18T12:23:20;1.50;;;1.20;;
2928;SDS011;1474;51.460;7.150;2023-11-18T12:25:53;1.15;;;1.00;;
2928;SDS011;1474;51.460;7.150;2023-11-18T12:30:52;2.20;;;1.42;;
2928;SDS011;1474;51.460;7.150;2023-11-18T12:33:22;2.53;;;1.15;;
2928;SDS011;1474;51.460;7.150;2023-11-18T12:39:26;2.65;;;1.30;;
2928;SDS011;1474;51.460;7.150;2023-11-18T12:45:30;3.45;;;1.38;;
2928;SDS011;1474;51.460;7.150;2023-11-18T12:48:17;2.03;;;1.20;;
2928;SDS011;1474;51.460;7.150;2023-11-18T12:50:51;3.10;;;1.50;;
2928;SDS011;1474;51.460;7.150;2023-11-18T12:53:20;2.45;;;0.98;;
2928;SDS011;1474;51.460;7.150;2023-11-18T12:55:49;2.85;;;1.30;;
2928;SDS011;1474;51.460;7.150;2023-11-18T12:58:15;3.13;;;1.05;;
2928;SDS011;1474;51.460;7.150;2023-11-18T13:00:43;1.98;;;1.55;;
2928;SDS011;1474;51.460;7.150;2023-11-18T13:03:10;2.25;;;1.20;;
2928;SDS011;1474;51.460;7.150;2023-11-18T13:05:36;2.17;;;1.40;;
2928;SDS011;1474;51.460;7.150;2023-11-18T13:08:03;2.10;;;1.27;;
2928;SDS011;1474;51.460;7.150;2023-11-18T13:10:29;1.60;;;0.98;;
2928;SDS011;1474;51.460;7.150;2023-11-18T13:12:56;4.10;;;1.42;;
2928;SDS011;1474;51.460;7.150;2023-11-18T13:15:23;1.98;;;1.13;;
2928;SDS011;1474;51.460;7.150;2023-11-18T13:18:03;1.20;;;0.93;;
2928;SDS011;1474;51.460;7.150;2023-11-18T13:20:34;2.22;;;1.10;;
2928;SDS011;1474;51.460;7.150;2023-11-18T13:23:02;1.95;;;1.02;;
2928;SDS011;1474;51.460;7.150;2023-11-18T13:25:36;1.88;;;1.23;;
2928;SDS011;1474;51.460;7.150;2023-11-18T13:30:34;2.40;;;1.35;;
2928;SDS011;1474;51.460;7.150;2023-11-18T13:33:00;1.73;;;1.10;;
2928;SDS011;1474;51.460;7.150;2023-11-18T13:35:26;3.30;;;1.50;;
2928;SDS011;1474;51.460;7.150;2023-11-18T13:37:53;1.42;;;0.95;;
2928;SDS011;1474;51.460;7.150;2023-11-18T13:40:19;2.17;;;0.98;;
2928;SDS011;1474;51.460;7.150;2023-11-18T13:42:45;1.70;;;1.20;;
2928;SDS011;1474;51.460;7.150;2023-11-18T13:45:12;1.75;;;1.17;;
2928;SDS011;1474;51.460;7.150;2023-11-18T13:47:49;2.38;;;1.20;;
2928;SDS011;1474;51.460;7.150;2023-11-18T13:50:17;3.40;;;1.40;;
2928;SDS011;1474;51.460;7.150;2023-11-18T13:52:45;2.15;;;1.08;;
2928;SDS011;1474;51.460;7.150;2023-11-18T13:55:14;3.33;;;1.17;;
2928;SDS011;1474;51.460;7.150;2023-11-18T13:57:56;2.22;;;1.02;;
2928;SDS011;1474;51.460;7.150;2023-11-18T14:00:24;2.25;;;0.93;;
2928;SDS011;1474;51.460;7.150;2023-11-18T14:02:55;3.88;;;1.20;;
2928;SDS011;1474;51.460;7.150;2023-11-18T14:05:22;2.97;;;1.17;;
2928;SDS011;1474;51.460;7.150;2023-11-18T14:07:49;4.50;;;1.40;;
2928;SDS011;1474;51.460;7.150;2023-11-18T14:10:20;1.50;;;1.13;;
2928;SDS011;1474;51.460;7.150;2023-11-18T14:13:02;1.83;;;1.10;;
2928;SDS011;1474;51.460;7.150;2023-11-18T14:15:37;1.45;;;1.10;;
2928;SDS011;1474;51.460;7.150;2023-11-18T14:18:03;1.85;;;1.00;;
2928;SDS011;1474;51.460;7.150;2023-11-18T14:20:32;4.55;;;1.20;;
2928;SDS011;1474;51.460;7.150;2023-11-18T14:23:00;1.75;;;1.15;;
2928;SDS011;1474;51.460;7.150;2023-11-18T14:25:29;2.53;;;1.40;;
2928;SDS011;1474;51.460;7.150;2023-11-18T14:27:55;1.63;;;1.02;;
2928;SDS011;1474;51.460;7.150;2023-11-18T14:30:22;1.90;;;1.17;;
2928;SDS011;1474;51.460;7.150;2023-11-18T14:32:51;1.92;;;0.90;;
2928;SDS011;1474;51.460;7.150;2023-11-18T14:35:17;1.38;;;1.00;;
2928;SDS011;1474;51.460;7.150;2023-11-18T14:37:44;2.47;;;1.15;;
2928;SDS011;1474;51.460;7.150;2023-11-18T14:40:13;2.03;;;1.10;;
2928;SDS011;1474;51.460;7.150;2023-11-18T14:42:41;1.45;;;1.00;;
2928;SDS011;1474;51.460;7.150;2023-11-18T14:45:08;1.50;;;0.88;;
2928;SDS011;1474;51.460;7.150;2023-11-18T14:47:37;2.92;;;1.10;;
2928;SDS011;1474;51.460;7.150;2023-11-18T14:50:04;1.92;;;1.13;;
2928;SDS011;1474;51.460;7.150;2023-11-18T14:52:40;3.67;;;1.10;;
2928;SDS011;1474;51.460;7.150;2023-11-18T14:55:07;1.80;;;1.02;;
2928;SDS011;1474;51.460;7.150;2023-11-18T14:57:37;2.28;;;1.27;;
2928;SDS011;1474;51.460;7.150;2023-11-18T15:00:09;2.10;;;1.08;;
2928;SDS011;1474;51.460;7.150;2023-11-18T15:02:52;1.58;;;0.90;;
2928;SDS011;1474;51.460;7.150;2023-11-18T15:05:22;1.83;;;1.10;;
2928;SDS011;1474;51.460;7.150;2023-11-18T15:07:49;1.08;;;0.85;;
2928;SDS011;1474;51.460;7.150;2023-11-18T15:10:18;1.83;;;1.00;;
2928;SDS011;1474;51.460;7.150;2023-11-18T15:12:49;1.33;;;1.00;;
2928;SDS011;1474;51.460;7.150;2023-11-18T15:15:23;1.15;;;0.90;;
2928;SDS011;1474;51.460;7.150;2023-11-18T15:17:57;3.35;;;2.17;;
2928;SDS011;1474;51.460;7.150;2023-11-18T15:20:24;1.45;;;0.98;;
2928;SDS011;1474;51.460;7.150;2023-11-18T15:22:51;1.70;;;0.90;;
2928;SDS011;1474;51.460;7.150;2023-11-18T15:25:17;4.75;;;1.13;;
2928;SDS011;1474;51.460;7.150;2023-11-18T15:27:43;1.33;;;0.90;;
2928;SDS011;1474;51.460;7.150;2023-11-18T15:30:11;1.10;;;0.95;;
2928;SDS011;1474;51.460;7.150;2023-11-18T15:32:45;1.67;;;1.20;;
2928;SDS011;1474;51.460;7.150;2023-11-18T15:35:12;1.50;;;1.00;;
2928;SDS011;1474;51.460;7.150;2023-11-18T15:37:41;1.37;;;1.00;;
2928;SDS011;1474;51.460;7.150;2023-11-18T15:40:11;2.33;;;1.23;;
2928;SDS011;1474;51.460;7.150;2023-11-18T15:42:39;2.47;;;0.93;;
2928;SDS011;1474;51.460;7.150;2023-11-18T15:45:10;2.72;;;0.90;;
2928;SDS011;1474;51.460;7.150;2023-11-18T15:47:38;1.13;;;0.85;;
2928;SDS011;1474;51.460;7.150;2023-11-18T15:50:07;0.90;;;0.80;;
2928;SDS011;1474;51.460;7.150;2023-11-18T15:52:37;0.90;;;0.70;;
2928;SDS011;1474;51.460;7.150;2023-11-18T15:55:04;1.13;;;0.80;;
2928;SDS011;1474;51.460;7.150;2023-11-18T15:57:40;2.22;;;0.98;;
2928;SDS011;1474;51.460;7.150;2023-11-18T16:00:08;0.95;;;0.80;;
2928;SDS011;1474;51.460;7.150;2023-11-18T16:02:45;1.42;;;0.90;;
2928;SDS011;1474;51.460;7.150;2023-11-18T16:05:18;1.40;;;0.80;;
2928;SDS011;1474;51.460;7.150;2023-11-18T16:07:47;0.90;;;0.70;;
2928;SDS011;1474;51.460;7.150;2023-11-18T16:10:19;1.80;;;1.00;;
2928;SDS011;1474;51.460;7.150;2023-11-18T16:12:49;1.40;;;0.90;;
2928;SDS011;1474;51.460;7.150;2023-11-18T16:15:18;1.77;;;0.93;;
2928;SDS011;1474;51.460;7.150;2023-11-18T16:17:48;2.58;;;1.25;;